Meath Environmental Platform

Observations for Trim Patrick St

Time AQI Temp °C Hum % Pres Pa CO μg/m³ H₂S μg/m³ NO μg/m³ NO₂ μg/m³ O₃ μg/m³ SO₂ μg/m³ PM1 μg/m³ PM2.5 μg/m³ PM10 μg/m³
Saturday 1 August 2026
22:25 3 17.8 56 69,616 0 10.36 1.25 23.92 46.15 3.03 3.71 8.31 9.14
22:24 3 17.9 55 69,587 0 11.41 1.19 28.87 44.26 3.34 2.86 7.59 8.35
22:23 3 17.9 56 69,547 0 11.33 1.19 28.52 45.36 3.2 4.57 9.8 10.78
22:22 3 17.9 55 69,523 0 11.77 1.19 29.22 38.04 3.06 4.57 9.13 10.04
22:21 3 17.9 56 69,464 0 11.54 1.22 28.18 44.26 3.56 3.71 8.32 9.15
22:20 3 17.9 56 69,440 0 11.64 1.23 27.1 47.29 2.89 2 6.81 7.49
22:19 3 18 55 69,412 0 11.83 1.27 33.66 39.21 2.98 2.86 7.58 8.34
22:18 3 18 55 69,402 0 11.75 1.26 29.49 43.3 3.23 2 7.6 8.36
22:17 3 18 55 69,393 0 11.96 1.24 28.09 45.79 3.67 4.57 8.34 9.18
22:16 3 18 55 69,377 0 11.75 1.24 30.19 39.77 2.84 3.71 8.36 9.2
22:14 3 18.1 55 69,314 0 11.8 1.14 28.37 42.99 3.67 4.57 10.62 11.68
22:13 3 18.1 55 69,298 0 12.43 1.16 30.11 43.58 3.78 2.86 8.36 9.19
22:12 3 18.1 55 69,278 0 13.24 1.14 31.5 40.23 3.34 3.71 9.1 10.01
22:10 3 18.2 55 69,246 0 14 1.19 36.43 41.27 3.81 3.71 9.11 10.02
22:09 3 18.2 55 69,210 0 13.82 1.22 34.96 39.7 3.84 3.71 8.36 9.19
22:06 3 18.3 54 69,193 0 14.4 1.18 36.81 41 4.06 2.86 8.39 9.23
22:05 3 18.3 54 69,171 0 14.08 1.19 35.64 40.57 3.81 4.57 9.15 10.07
22:04 3 18.3 54 69,138 0 14.24 1.26 32.42 42.66 4.55 3.71 8.4 9.24
22:03 3 18.4 54 69,122 0 14.42 1.23 36.34 40.63 4.77 3.71 8.39 9.23
22:02 3 18.4 54 69,102 0 13.4 1.26 35.56 35.85 4.24 3.71 9.15 10.07